sensor_id;sensor_type;location;lat;lon;timestamp;temperature;humidity
9193;DHT22;4631;49.296;10.560;2023-07-20T00:00:41;18.80;99.90
9193;DHT22;4631;49.296;10.560;2023-07-20T00:03:11;18.70;99.90
9193;DHT22;4631;49.296;10.560;2023-07-20T00:05:42;18.70;99.90
9193;DHT22;4631;49.296;10.560;2023-07-20T00:08:09;18.70;99.90
9193;DHT22;4631;49.296;10.560;2023-07-20T00:10:35;18.70;99.90
9193;DHT22;4631;49.296;10.560;2023-07-20T00:13:02;18.70;99.90
9193;DHT22;4631;49.296;10.560;2023-07-20T00:15:29;18.70;99.90
9193;DHT22;4631;49.296;10.560;2023-07-20T00:17:57;18.70;99.90
9193;DHT22;4631;49.296;10.560;2023-07-20T00:20:23;18.70;99.90
9193;DHT22;4631;49.296;10.560;2023-07-20T00:22:50;18.70;99.90
9193;DHT22;4631;49.296;10.560;2023-07-20T00:25:17;18.70;99.90
9193;DHT22;4631;49.296;10.560;2023-07-20T00:27:44;18.70;99.90
9193;DHT22;4631;49.296;10.560;2023-07-20T00:30:11;18.70;99.90
9193;DHT22;4631;49.296;10.560;2023-07-20T00:32:37;18.70;99.90
9193;DHT22;4631;49.296;10.560;2023-07-20T00:35:06;18.70;99.90
9193;DHT22;4631;49.296;10.560;2023-07-20T00:37:33;18.70;99.90
9193;DHT22;4631;49.296;10.560;2023-07-20T00:39:59;18.60;99.90
9193;DHT22;4631;49.296;10.560;2023-07-20T00:42:26;18.60;99.90
9193;DHT22;4631;49.296;10.560;2023-07-20T00:44:52;18.60;99.90
9193;DHT22;4631;49.296;10.560;2023-07-20T00:47:19;18.60;99.90
9193;DHT22;4631;49.296;10.560;2023-07-20T00:49:46;18.60;99.90
9193;DHT22;4631;49.296;10.560;2023-07-20T00:52:14;18.50;99.90
9193;DHT22;4631;49.296;10.560;2023-07-20T00:54:41;18.50;99.90
9193;DHT22;4631;49.296;10.560;2023-07-20T00:57:08;18.50;99.90
9193;DHT22;4631;49.296;10.560;2023-07-20T00:59:34;18.50;99.90
9193;DHT22;4631;49.296;10.560;2023-07-20T01:02:01;18.40;99.90
9193;DHT22;4631;49.296;10.560;2023-07-20T01:04:28;18.40;99.90
9193;DHT22;4631;49.296;10.560;2023-07-20T01:06:57;18.40;99.90
9193;DHT22;4631;49.296;10.560;2023-07-20T01:09:27;18.30;99.90
9193;DHT22;4631;49.296;10.560;2023-07-20T01:11:57;18.30;99.90
9193;DHT22;4631;49.296;10.560;2023-07-20T01:14:26;18.30;99.90
9193;DHT22;4631;49.296;10.560;2023-07-20T01:16:52;18.30;99.90
9193;DHT22;4631;49.296;10.560;2023-07-20T01:19:19;18.30;99.90
9193;DHT22;4631;49.296;10.560;2023-07-20T01:21:48;18.40;99.90
9193;DHT22;4631;49.296;10.560;2023-07-20T01:24:22;18.30;99.90
9193;DHT22;4631;49.296;10.560;2023-07-20T01:29:39;18.30;99.90
9193;DHT22;4631;49.296;10.560;2023-07-20T01:32:10;18.30;99.90
9193;DHT22;4631;49.296;10.560;2023-07-20T01:34:37;18.20;99.90
9193;DHT22;4631;49.296;10.560;2023-07-20T01:37:05;18.30;99.90
9193;DHT22;4631;49.296;10.560;2023-07-20T01:39:32;18.20;99.90
9193;DHT22;4631;49.296;10.560;2023-07-20T01:41:58;18.20;99.90
9193;DHT22;4631;49.296;10.560;2023-07-20T01:44:28;18.20;99.90
9193;DHT22;4631;49.296;10.560;2023-07-20T01:46:55;18.20;99.90
9193;DHT22;4631;49.296;10.560;2023-07-20T01:49:23;18.10;99.90
9193;DHT22;4631;49.296;10.560;2023-07-20T01:51:50;18.00;99.90
9193;DHT22;4631;49.296;10.560;2023-07-20T01:54:16;18.00;99.90
9193;DHT22;4631;49.296;10.560;2023-07-20T01:56:43;18.00;99.90
9193;DHT22;4631;49.296;10.560;2023-07-20T01:59:09;17.90;99.90
9193;DHT22;4631;49.296;10.560;2023-07-20T02:01:42;17.90;99.90
9193;DHT22;4631;49.296;10.560;2023-07-20T02:04:09;17.80;99.90
9193;DHT22;4631;49.296;10.560;2023-07-20T02:06:37;17.70;99.90
9193;DHT22;4631;49.296;10.560;2023-07-20T02:09:03;17.80;99.90
9193;DHT22;4631;49.296;10.560;2023-07-20T02:11:30;17.70;99.90
9193;DHT22;4631;49.296;10.560;2023-07-20T02:13:56;17.60;99.90
9193;DHT22;4631;49.296;10.560;2023-07-20T02:16:23;17.60;99.90
9193;DHT22;4631;49.296;10.560;2023-07-20T02:18:50;17.50;99.90
9193;DHT22;4631;49.296;10.560;2023-07-20T02:21:16;17.50;99.90
9193;DHT22;4631;49.296;10.560;2023-07-20T02:23:44;17.50;99.90
9193;DHT22;4631;49.296;10.560;2023-07-20T02:26:11;17.50;99.90
9193;DHT22;4631;49.296;10.560;2023-07-20T02:28:37;17.50;99.90
9193;DHT22;4631;49.296;10.560;2023-07-20T02:31:04;17.50;99.90
9193;DHT22;4631;49.296;10.560;2023-07-20T02:33:31;17.50;99.90
9193;DHT22;4631;49.296;10.560;2023-07-20T02:35:57;17.50;99.90
9193;DHT22;4631;49.296;10.560;2023-07-20T02:38:24;17.50;99.90
9193;DHT22;4631;49.296;10.560;2023-07-20T02:40:52;17.50;99.90
9193;DHT22;4631;49.296;10.560;2023-07-20T02:43:19;17.40;99.90
9193;DHT22;4631;49.296;10.560;2023-07-20T02:45:45;17.40;99.90
9193;DHT22;4631;49.296;10.560;2023-07-20T02:48:12;17.30;99.90
9193;DHT22;4631;49.296;10.560;2023-07-20T02:50:39;17.20;99.90
9193;DHT22;4631;49.296;10.560;2023-07-20T02:53:06;17.20;99.90
9193;DHT22;4631;49.296;10.560;2023-07-20T02:55:33;17.20;99.90
9193;DHT22;4631;49.296;10.560;2023-07-20T02:58:01;17.20;99.90
9193;DHT22;4631;49.296;10.560;2023-07-20T03:00:27;17.20;99.90
9193;DHT22;4631;49.296;10.560;2023-07-20T03:02:54;17.20;99.90
9193;DHT22;4631;49.296;10.560;2023-07-20T03:05:21;17.10;99.90
9193;DHT22;4631;49.296;10.560;2023-07-20T03:07:50;17.20;99.90
9193;DHT22;4631;49.296;10.560;2023-07-20T03:10:17;17.20;99.90
9193;DHT22;4631;49.296;10.560;2023-07-20T03:12:44;17.20;99.90
9193;DHT22;4631;49.296;10.560;2023-07-20T03:15:12;17.20;99.90
9193;DHT22;4631;49.296;10.560;2023-07-20T03:17:38;17.10;99.90
9193;DHT22;4631;49.296;10.560;2023-07-20T03:20:05;17.10;99.90
9193;DHT22;4631;49.296;10.560;2023-07-20T03:22:34;17.20;99.90
9193;DHT22;4631;49.296;10.560;2023-07-20T03:25:01;17.10;99.90
9193;DHT22;4631;49.296;10.560;2023-07-20T03:27:28;17.10;99.90
9193;DHT22;4631;49.296;10.560;2023-07-20T03:29:55;17.10;99.90
9193;DHT22;4631;49.296;10.560;2023-07-20T03:32:23;17.10;99.90
9193;DHT22;4631;49.296;10.560;2023-07-20T03:34:49;17.10;99.90
9193;DHT22;4631;49.296;10.560;2023-07-20T03:37:16;17.00;99.90
9193;DHT22;4631;49.296;10.560;2023-07-20T03:39:42;17.10;99.90
9193;DHT22;4631;49.296;10.560;2023-07-20T03:42:09;17.10;99.90
9193;DHT22;4631;49.296;10.560;2023-07-20T03:44:36;17.10;99.90
9193;DHT22;4631;49.296;10.560;2023-07-20T03:47:02;17.10;99.90
9193;DHT22;4631;49.296;10.560;2023-07-20T03:49:31;17.10;99.90
9193;DHT22;4631;49.296;10.560;2023-07-20T03:51:57;17.10;99.90
9193;DHT22;4631;49.296;10.560;2023-07-20T03:54:30;17.00;99.90
9193;DHT22;4631;49.296;10.560;2023-07-20T03:56:57;17.00;99.90
9193;DHT22;4631;49.296;10.560;2023-07-20T03:59:24;17.00;99.90
9193;DHT22;4631;49.296;10.560;2023-07-20T04:01:51;17.10;99.90
9193;DHT22;4631;49.296;10.560;2023-07-20T04:04:17;17.10;99.90
9193;DHT22;4631;49.296;10.560;2023-07-20T04:06:45;17.10;99.90
9193;DHT22;4631;49.296;10.560;2023-07-20T04:09:19;17.10;99.90
9193;DHT22;4631;49.296;10.560;2023-07-20T04:11:46;17.00;99.90
9193;DHT22;4631;49.296;10.560;2023-07-20T04:14:12;17.10;99.90
9193;DHT22;4631;49.296;10.560;2023-07-20T04:16:39;17.10;99.90
9193;DHT22;4631;49.296;10.560;2023-07-20T04:19:05;17.10;99.90
9193;DHT22;4631;49.296;10.560;2023-07-20T04:21:32;17.00;99.90
9193;DHT22;4631;49.296;10.560;2023-07-20T04:24:00;17.00;99.90
9193;DHT22;4631;49.296;10.560;2023-07-20T04:26:27;17.00;99.90
9193;DHT22;4631;49.296;10.560;2023-07-20T04:28:53;17.00;99.90
9193;DHT22;4631;49.296;10.560;2023-07-20T04:31:20;17.00;99.90
9193;DHT22;4631;49.296;10.560;2023-07-20T04:33:46;17.10;99.90
9193;DHT22;4631;49.296;10.560;2023-07-20T04:36:13;17.00;99.90
9193;DHT22;4631;49.296;10.560;2023-07-20T04:38:42;17.00;99.90
9193;DHT22;4631;49.296;10.560;2023-07-20T04:41:10;17.00;99.90
9193;DHT22;4631;49.296;10.560;2023-07-20T04:43:40;17.00;99.90
9193;DHT22;4631;49.296;10.560;2023-07-20T04:46:07;16.90;99.90
9193;DHT22;4631;49.296;10.560;2023-07-20T04:48:33;17.00;99.90
9193;DHT22;4631;49.296;10.560;2023-07-20T04:51:00;17.00;99.90
9193;DHT22;4631;49.296;10.560;2023-07-20T04:53:26;17.00;99.90
9193;DHT22;4631;49.296;10.560;2023-07-20T04:55:53;17.10;99.90
9193;DHT22;4631;49.296;10.560;2023-07-20T04:58:21;17.10;99.90
9193;DHT22;4631;49.296;10.560;2023-07-20T05:00:48;17.20;99.90
9193;DHT22;4631;49.296;10.560;2023-07-20T05:03:15;17.20;99.90
9193;DHT22;4631;49.296;10.560;2023-07-20T05:05:42;17.30;99.90
9193;DHT22;4631;49.296;10.560;2023-07-20T05:08:08;17.30;99.90
9193;DHT22;4631;49.296;10.560;2023-07-20T05:10:35;17.40;99.90
9193;DHT22;4631;49.296;10.560;2023-07-20T05:13:02;17.40;99.90
9193;DHT22;4631;49.296;10.560;2023-07-20T05:15:32;17.50;99.90
9193;DHT22;4631;49.296;10.560;2023-07-20T05:17:58;17.50;99.90
9193;DHT22;4631;49.296;10.560;2023-07-20T05:20:25;17.50;99.90
9193;DHT22;4631;49.296;10.560;2023-07-20T05:22:52;17.40;99.90
9193;DHT22;4631;49.296;10.560;2023-07-20T05:25:19;17.40;99.90
9193;DHT22;4631;49.296;10.560;2023-07-20T05:27:48;17.40;99.90
9193;DHT22;4631;49.296;10.560;2023-07-20T05:30:15;17.50;99.90
9193;DHT22;4631;49.296;10.560;2023-07-20T05:32:43;17.50;99.90
9193;DHT22;4631;49.296;10.560;2023-07-20T05:35:11;17.60;99.90
9193;DHT22;4631;49.296;10.560;2023-07-20T05:37:38;17.60;99.90
9193;DHT22;4631;49.296;10.560;2023-07-20T05:40:08;17.70;99.90
9193;DHT22;4631;49.296;10.560;2023-07-20T05:42:37;17.70;99.90
9193;DHT22;4631;49.296;10.560;2023-07-20T05:45:04;17.80;99.90
9193;DHT22;4631;49.296;10.560;2023-07-20T05:47:31;17.90;99.90
9193;DHT22;4631;49.296;10.560;2023-07-20T05:49:59;18.00;99.90
9193;DHT22;4631;49.296;10.560;2023-07-20T05:52:26;18.10;99.90
9193;DHT22;4631;49.296;10.560;2023-07-20T05:54:52;18.10;99.90
9193;DHT22;4631;49.296;10.560;2023-07-20T05:57:19;18.10;99.90
9193;DHT22;4631;49.296;10.560;2023-07-20T05:59:47;18.10;99.90
9193;DHT22;4631;49.296;10.560;2023-07-20T06:02:13;18.20;99.90
9193;DHT22;4631;49.296;10.560;2023-07-20T06:04:40;18.30;99.90
9193;DHT22;4631;49.296;10.560;2023-07-20T06:07:08;18.30;99.90
9193;DHT22;4631;49.296;10.560;2023-07-20T06:09:35;18.30;99.90
9193;DHT22;4631;49.296;10.560;2023-07-20T06:12:01;18.40;99.90
9193;DHT22;4631;49.296;10.560;2023-07-20T06:14:28;18.30;99.90
9193;DHT22;4631;49.296;10.560;2023-07-20T06:16:55;18.40;99.90
9193;DHT22;4631;49.296;10.560;2023-07-20T06:19:21;18.40;99.90
9193;DHT22;4631;49.296;10.560;2023-07-20T06:21:48;18.40;99.90
9193;DHT22;4631;49.296;10.560;2023-07-20T06:24:17;18.40;99.90
9193;DHT22;4631;49.296;10.560;2023-07-20T06:26:44;18.50;99.90
9193;DHT22;4631;49.296;10.560;2023-07-20T06:29:10;18.60;99.90
9193;DHT22;4631;49.296;10.560;2023-07-20T06:31:37;18.60;99.90
9193;DHT22;4631;49.296;10.560;2023-07-20T06:34:03;18.50;99.90
9193;DHT22;4631;49.296;10.560;2023-07-20T06:36:30;18.50;99.90
9193;DHT22;4631;49.296;10.560;2023-07-20T06:38:57;18.50;99.90
9193;DHT22;4631;49.296;10.560;2023-07-20T06:41:25;18.50;99.90
9193;DHT22;4631;49.296;10.560;2023-07-20T06:43:51;18.50;99.90
9193;DHT22;4631;49.296;10.560;2023-07-20T06:46:23;18.50;99.90
9193;DHT22;4631;49.296;10.560;2023-07-20T06:48:50;18.50;99.90
9193;DHT22;4631;49.296;10.560;2023-07-20T06:51:16;18.60;99.90
9193;DHT22;4631;49.296;10.560;2023-07-20T06:53:43;18.60;99.90
9193;DHT22;4631;49.296;10.560;2023-07-20T06:56:10;18.70;99.90
9193;DHT22;4631;49.296;10.560;2023-07-20T06:58:38;18.80;99.90
9193;DHT22;4631;49.296;10.560;2023-07-20T07:01:05;18.80;99.90
9193;DHT22;4631;49.296;10.560;2023-07-20T07:03:31;18.80;99.90
9193;DHT22;4631;49.296;10.560;2023-07-20T07:05:58;18.90;99.90
9193;DHT22;4631;49.296;10.560;2023-07-20T07:08:25;19.00;99.90
9193;DHT22;4631;49.296;10.560;2023-07-20T07:10:52;19.00;99.90
9193;DHT22;4631;49.296;10.560;2023-07-20T07:13:19;19.00;99.90
9193;DHT22;4631;49.296;10.560;2023-07-20T07:15:47;19.00;99.90
9193;DHT22;4631;49.296;10.560;2023-07-20T07:18:13;19.00;99.90
9193;DHT22;4631;49.296;10.560;2023-07-20T07:20:40;19.10;99.90
9193;DHT22;4631;49.296;10.560;2023-07-20T07:23:07;19.20;99.90
9193;DHT22;4631;49.296;10.560;2023-07-20T07:25:33;19.20;99.90
9193;DHT22;4631;49.296;10.560;2023-07-20T07:28:00;19.30;99.90
9193;DHT22;4631;49.296;10.560;2023-07-20T07:30:26;19.20;99.90
9193;DHT22;4631;49.296;10.560;2023-07-20T07:32:54;19.30;99.90
9193;DHT22;4631;49.296;10.560;2023-07-20T07:35:21;19.30;99.90
9193;DHT22;4631;49.296;10.560;2023-07-20T07:37:48;19.40;99.90
9193;DHT22;4631;49.296;10.560;2023-07-20T07:40:14;19.40;99.90
9193;DHT22;4631;49.296;10.560;2023-07-20T07:42:41;19.40;99.90
9193;DHT22;4631;49.296;10.560;2023-07-20T07:45:08;19.50;99.90
9193;DHT22;4631;49.296;10.560;2023-07-20T07:47:34;19.50;99.90
9193;DHT22;4631;49.296;10.560;2023-07-20T07:50:03;19.50;99.90
9193;DHT22;4631;49.296;10.560;2023-07-20T07:52:30;19.50;99.90
9193;DHT22;4631;49.296;10.560;2023-07-20T07:54:57;19.50;99.90
9193;DHT22;4631;49.296;10.560;2023-07-20T07:57:25;19.50;99.90
9193;DHT22;4631;49.296;10.560;2023-07-20T07:59:52;19.60;99.90
9193;DHT22;4631;49.296;10.560;2023-07-20T08:02:18;19.70;99.90
9193;DHT22;4631;49.296;10.560;2023-07-20T08:04:46;19.80;99.90
9193;DHT22;4631;49.296;10.560;2023-07-20T08:07:14;19.90;99.90
9193;DHT22;4631;49.296;10.560;2023-07-20T08:09:41;19.90;99.90
9193;DHT22;4631;49.296;10.560;2023-07-20T08:12:08;19.90;99.90
9193;DHT22;4631;49.296;10.560;2023-07-20T08:14:34;20.00;99.90
9193;DHT22;4631;49.296;10.560;2023-07-20T08:17:03;20.00;99.90
9193;DHT22;4631;49.296;10.560;2023-07-20T08:19:30;20.00;99.90
9193;DHT22;4631;49.296;10.560;2023-07-20T08:21:56;20.00;99.90
9193;DHT22;4631;49.296;10.560;2023-07-20T08:24:24;20.00;99.90
9193;DHT22;4631;49.296;10.560;2023-07-20T08:26:53;20.00;99.90
9193;DHT22;4631;49.296;10.560;2023-07-20T08:29:20;19.90;99.90
9193;DHT22;4631;49.296;10.560;2023-07-20T08:31:46;20.00;99.90
9193;DHT22;4631;49.296;10.560;2023-07-20T08:34:14;19.90;99.90
9193;DHT22;4631;49.296;10.560;2023-07-20T08:36:42;20.00;99.90
9193;DHT22;4631;49.296;10.560;2023-07-20T08:39:09;20.10;99.90
9193;DHT22;4631;49.296;10.560;2023-07-20T08:41:37;20.30;99.90
9193;DHT22;4631;49.296;10.560;2023-07-20T08:44:04;20.30;99.90
9193;DHT22;4631;49.296;10.560;2023-07-20T08:46:32;20.30;99.90
9193;DHT22;4631;49.296;10.560;2023-07-20T08:48:59;20.40;99.90
9193;DHT22;4631;49.296;10.560;2023-07-20T08:51:28;20.40;99.90
9193;DHT22;4631;49.296;10.560;2023-07-20T08:53:54;20.30;99.90
9193;DHT22;4631;49.296;10.560;2023-07-20T08:56:21;20.20;99.90
9193;DHT22;4631;49.296;10.560;2023-07-20T08:58:51;20.10;99.90
9193;DHT22;4631;49.296;10.560;2023-07-20T09:01:18;20.20;99.90
9193;DHT22;4631;49.296;10.560;2023-07-20T09:03:45;20.30;99.90
9193;DHT22;4631;49.296;10.560;2023-07-20T09:06:12;20.30;99.90
9193;DHT22;4631;49.296;10.560;2023-07-20T09:08:39;20.30;99.90
9193;DHT22;4631;49.296;10.560;2023-07-20T09:11:05;20.40;99.90
9193;DHT22;4631;49.296;10.560;2023-07-20T09:13:32;20.40;99.90
9193;DHT22;4631;49.296;10.560;2023-07-20T09:16:00;20.60;99.90
9193;DHT22;4631;49.296;10.560;2023-07-20T09:18:29;20.70;99.90
9193;DHT22;4631;49.296;10.560;2023-07-20T09:20:59;20.80;99.90
9193;DHT22;4631;49.296;10.560;2023-07-20T09:23:31;20.90;99.90
9193;DHT22;4631;49.296;10.560;2023-07-20T09:25:58;21.00;99.90
9193;DHT22;4631;49.296;10.560;2023-07-20T09:28:25;21.10;99.90
9193;DHT22;4631;49.296;10.560;2023-07-20T09:30:52;21.10;99.90
9193;DHT22;4631;49.296;10.560;2023-07-20T09:33:22;21.20;99.90
9193;DHT22;4631;49.296;10.560;2023-07-20T09:35:49;21.10;99.90
9193;DHT22;4631;49.296;10.560;2023-07-20T09:38:15;21.10;99.90
9193;DHT22;4631;49.296;10.560;2023-07-20T09:40:42;21.20;99.90
9193;DHT22;4631;49.296;10.560;2023-07-20T09:43:09;21.20;99.90
9193;DHT22;4631;49.296;10.560;2023-07-20T09:45:39;21.30;99.90
9193;DHT22;4631;49.296;10.560;2023-07-20T09:48:06;21.50;99.90
9193;DHT22;4631;49.296;10.560;2023-07-20T09:50:34;21.60;99.90
9193;DHT22;4631;49.296;10.560;2023-07-20T09:53:01;21.70;99.90
9193;DHT22;4631;49.296;10.560;2023-07-20T09:55:28;21.60;99.90
9193;DHT22;4631;49.296;10.560;2023-07-20T09:57:55;21.50;99.90
9193;DHT22;4631;49.296;10.560;2023-07-20T10:00:24;21.50;99.90
9193;DHT22;4631;49.296;10.560;2023-07-20T10:02:53;21.70;99.90
9193;DHT22;4631;49.296;10.560;2023-07-20T10:05:21;21.60;99.90
9193;DHT22;4631;49.296;10.560;2023-07-20T10:07:50;21.70;99.90
9193;DHT22;4631;49.296;10.560;2023-07-20T10:10:17;21.90;99.90
9193;DHT22;4631;49.296;10.560;2023-07-20T10:12:45;21.90;99.90
9193;DHT22;4631;49.296;10.560;2023-07-20T10:15:15;21.90;99.90
9193;DHT22;4631;49.296;10.560;2023-07-20T10:17:45;21.90;99.90
9193;DHT22;4631;49.296;10.560;2023-07-20T10:20:15;21.90;99.90
9193;DHT22;4631;49.296;10.560;2023-07-20T10:22:44;22.00;99.90
9193;DHT22;4631;49.296;10.560;2023-07-20T10:25:12;22.20;99.90
9193;DHT22;4631;49.296;10.560;2023-07-20T10:27:39;22.20;99.90
9193;DHT22;4631;49.296;10.560;2023-07-20T10:30:06;22.20;99.90
9193;DHT22;4631;49.296;10.560;2023-07-20T10:32:33;22.10;99.90
9193;DHT22;4631;49.296;10.560;2023-07-20T10:35:00;22.30;99.90
9193;DHT22;4631;49.296;10.560;2023-07-20T10:37:46;22.40;99.90
9193;DHT22;4631;49.296;10.560;2023-07-20T10:40:27;22.60;99.90
9193;DHT22;4631;49.296;10.560;2023-07-20T10:45:41;23.10;99.90
9193;DHT22;4631;49.296;10.560;2023-07-20T10:48:12;23.30;99.90
9193;DHT22;4631;49.296;10.560;2023-07-20T10:50:41;23.40;99.90
9193;DHT22;4631;49.296;10.560;2023-07-20T10:53:11;23.40;99.90
9193;DHT22;4631;49.296;10.560;2023-07-20T10:55:40;23.30;99.90
9193;DHT22;4631;49.296;10.560;2023-07-20T10:58:08;23.20;99.90
9193;DHT22;4631;49.296;10.560;2023-07-20T11:00:37;23.30;99.90
9193;DHT22;4631;49.296;10.560;2023-07-20T11:03:04;23.50;99.90
9193;DHT22;4631;49.296;10.560;2023-07-20T11:05:37;23.70;99.90
9193;DHT22;4631;49.296;10.560;2023-07-20T11:08:05;23.80;99.90
9193;DHT22;4631;49.296;10.560;2023-07-20T11:10:32;24.00;99.90
9193;DHT22;4631;49.296;10.560;2023-07-20T11:15:46;24.10;99.70
9193;DHT22;4631;49.296;10.560;2023-07-20T11:18:13;23.90;98.90
9193;DHT22;4631;49.296;10.560;2023-07-20T11:20:41;23.70;99.30
9193;DHT22;4631;49.296;10.560;2023-07-20T11:23:10;23.50;98.80
9193;DHT22;4631;49.296;10.560;2023-07-20T11:25:38;23.30;99.60
9193;DHT22;4631;49.296;10.560;2023-07-20T11:28:06;23.30;99.90
9193;DHT22;4631;49.296;10.560;2023-07-20T11:30:34;23.40;99.90
9193;DHT22;4631;49.296;10.560;2023-07-20T11:33:02;23.40;99.90
9193;DHT22;4631;49.296;10.560;2023-07-20T11:35:28;23.50;99.90
9193;DHT22;4631;49.296;10.560;2023-07-20T11:37:55;23.70;99.90
9193;DHT22;4631;49.296;10.560;2023-07-20T11:40:22;23.80;99.90
9193;DHT22;4631;49.296;10.560;2023-07-20T11:42:51;24.00;99.90
9193;DHT22;4631;49.296;10.560;2023-07-20T11:45:19;24.20;99.90
9193;DHT22;4631;49.296;10.560;2023-07-20T11:47:45;24.40;98.00
9193;DHT22;4631;49.296;10.560;2023-07-20T11:50:13;24.50;97.70
9193;DHT22;4631;49.296;10.560;2023-07-20T11:52:42;24.80;97.70
9193;DHT22;4631;49.296;10.560;2023-07-20T11:55:09;25.00;97.10
9193;DHT22;4631;49.296;10.560;2023-07-20T11:57:36;25.10;96.40
9193;DHT22;4631;49.296;10.560;2023-07-20T12:00:04;25.00;96.50
9193;DHT22;4631;49.296;10.560;2023-07-20T12:02:36;24.90;96.40
9193;DHT22;4631;49.296;10.560;2023-07-20T12:05:03;24.60;95.20
9193;DHT22;4631;49.296;10.560;2023-07-20T12:07:35;24.40;94.70
9193;DHT22;4631;49.296;10.560;2023-07-20T12:10:04;24.30;94.70
9193;DHT22;4631;49.296;10.560;2023-07-20T12:12:31;24.10;94.90
9193;DHT22;4631;49.296;10.560;2023-07-20T12:15:11;24.10;95.30
9193;DHT22;4631;49.296;10.560;2023-07-20T12:17:41;24.30;96.10
9193;DHT22;4631;49.296;10.560;2023-07-20T12:20:08;24.50;95.30
9193;DHT22;4631;49.296;10.560;2023-07-20T12:22:39;24.70;94.40
9193;DHT22;4631;49.296;10.560;2023-07-20T12:25:06;24.90;95.50
9193;DHT22;4631;49.296;10.560;2023-07-20T12:27:41;24.90;94.30
9193;DHT22;4631;49.296;10.560;2023-07-20T12:30:10;24.70;94.10
9193;DHT22;4631;49.296;10.560;2023-07-20T12:32:39;24.70;94.60
9193;DHT22;4631;49.296;10.560;2023-07-20T12:35:05;24.90;95.40
9193;DHT22;4631;49.296;10.560;2023-07-20T12:37:32;25.30;94.10
9193;DHT22;4631;49.296;10.560;2023-07-20T12:40:00;25.30;93.00
9193;DHT22;4631;49.296;10.560;2023-07-20T12:42:27;25.30;92.30
9193;DHT22;4631;49.296;10.560;2023-07-20T12:44:53;25.60;92.30
9193;DHT22;4631;49.296;10.560;2023-07-20T12:47:20;25.60;91.30
9193;DHT22;4631;49.296;10.560;2023-07-20T12:49:47;25.50;91.20
9193;DHT22;4631;49.296;10.560;2023-07-20T12:52:14;25.30;90.10
9193;DHT22;4631;49.296;10.560;2023-07-20T12:54:41;25.40;90.30
9193;DHT22;4631;49.296;10.560;2023-07-20T12:57:09;25.50;87.50
9193;DHT22;4631;49.296;10.560;2023-07-20T12:59:35;25.40;88.40
9193;DHT22;4631;49.296;10.560;2023-07-20T13:02:02;25.60;87.80
9193;DHT22;4631;49.296;10.560;2023-07-20T13:04:29;25.80;86.70
9193;DHT22;4631;49.296;10.560;2023-07-20T13:06:56;25.80;84.80
9193;DHT22;4631;49.296;10.560;2023-07-20T13:09:23;25.90;85.60
9193;DHT22;4631;49.296;10.560;2023-07-20T13:11:50;26.10;84.10
9193;DHT22;4631;49.296;10.560;2023-07-20T13:14:19;26.30;84.10
9193;DHT22;4631;49.296;10.560;2023-07-20T13:16:45;26.60;83.70
9193;DHT22;4631;49.296;10.560;2023-07-20T13:19:12;26.80;83.50
9193;DHT22;4631;49.296;10.560;2023-07-20T13:21:39;27.00;82.40
9193;DHT22;4631;49.296;10.560;2023-07-20T13:24:05;27.20;79.90
9193;DHT22;4631;49.296;10.560;2023-07-20T13:26:33;27.40;78.90
9193;DHT22;4631;49.296;10.560;2023-07-20T13:29:00;27.40;76.70
9193;DHT22;4631;49.296;10.560;2023-07-20T13:31:28;27.60;77.20
9193;DHT22;4631;49.296;10.560;2023-07-20T13:33:54;27.80;76.80
9193;DHT22;4631;49.296;10.560;2023-07-20T13:36:21;27.90;75.40
9193;DHT22;4631;49.296;10.560;2023-07-20T13:38:48;28.10;76.10
9193;DHT22;4631;49.296;10.560;2023-07-20T13:41:15;28.20;76.30
9193;DHT22;4631;49.296;10.560;2023-07-20T13:43:41;28.20;75.80
9193;DHT22;4631;49.296;10.560;2023-07-20T13:46:08;28.30;75.90
9193;DHT22;4631;49.296;10.560;2023-07-20T13:48:36;28.50;74.30
9193;DHT22;4631;49.296;10.560;2023-07-20T13:51:02;28.60;74.00
9193;DHT22;4631;49.296;10.560;2023-07-20T13:53:29;28.60;75.60
9193;DHT22;4631;49.296;10.560;2023-07-20T13:55:56;28.60;76.50
9193;DHT22;4631;49.296;10.560;2023-07-20T13:58:23;28.70;75.50
9193;DHT22;4631;49.296;10.560;2023-07-20T14:00:50;28.70;75.30
9193;DHT22;4631;49.296;10.560;2023-07-20T14:03:16;28.60;75.00
9193;DHT22;4631;49.296;10.560;2023-07-20T14:05:44;28.40;75.90
9193;DHT22;4631;49.296;10.560;2023-07-20T14:08:11;28.20;75.50
9193;DHT22;4631;49.296;10.560;2023-07-20T14:10:38;28.10;75.80
9193;DHT22;4631;49.296;10.560;2023-07-20T14:13:04;27.90;76.50
9193;DHT22;4631;49.296;10.560;2023-07-20T14:15:31;27.90;78.20
9193;DHT22;4631;49.296;10.560;2023-07-20T14:17:57;28.00;78.20
9193;DHT22;4631;49.296;10.560;2023-07-20T14:20:24;28.00;78.70
9193;DHT22;4631;49.296;10.560;2023-07-20T14:22:52;28.00;77.40
9193;DHT22;4631;49.296;10.560;2023-07-20T14:25:19;28.00;81.30
9193;DHT22;4631;49.296;10.560;2023-07-20T14:27:47;28.00;77.00
9193;DHT22;4631;49.296;10.560;2023-07-20T14:30:14;27.90;76.90
9193;DHT22;4631;49.296;10.560;2023-07-20T14:32:40;27.60;76.70
9193;DHT22;4631;49.296;10.560;2023-07-20T14:35:07;27.60;78.10
9193;DHT22;4631;49.296;10.560;2023-07-20T14:37:34;27.50;77.40
9193;DHT22;4631;49.296;10.560;2023-07-20T14:40:02;27.60;79.40
9193;DHT22;4631;49.296;10.560;2023-07-20T14:42:30;27.40;78.10
9193;DHT22;4631;49.296;10.560;2023-07-20T14:44:57;27.00;79.40
9193;DHT22;4631;49.296;10.560;2023-07-20T14:47:24;26.80;80.40
9193;DHT22;4631;49.296;10.560;2023-07-20T14:49:50;27.00;82.20
9193;DHT22;4631;49.296;10.560;2023-07-20T14:52:17;27.40;83.30
9193;DHT22;4631;49.296;10.560;2023-07-20T14:54:44;27.80;80.90
9193;DHT22;4631;49.296;10.560;2023-07-20T14:57:12;27.90;79.40
9193;DHT22;4631;49.296;10.560;2023-07-20T14:59:40;28.00;81.10
9193;DHT22;4631;49.296;10.560;2023-07-20T15:02:07;28.20;80.40
9193;DHT22;4631;49.296;10.560;2023-07-20T15:04:33;28.20;81.70
9193;DHT22;4631;49.296;10.560;2023-07-20T15:07:00;28.40;79.30
9193;DHT22;4631;49.296;10.560;2023-07-20T15:09:27;28.50;78.00
9193;DHT22;4631;49.296;10.560;2023-07-20T15:11:53;28.50;78.40
9193;DHT22;4631;49.296;10.560;2023-07-20T15:14:21;28.60;79.60
9193;DHT22;4631;49.296;10.560;2023-07-20T15:16:48;28.70;79.80
9193;DHT22;4631;49.296;10.560;2023-07-20T15:19:14;28.70;77.90
9193;DHT22;4631;49.296;10.560;2023-07-20T15:21:41;28.70;77.80
9193;DHT22;4631;49.296;10.560;2023-07-20T15:24:08;28.40;78.30
9193;DHT22;4631;49.296;10.560;2023-07-20T15:26:35;28.10;78.50
9193;DHT22;4631;49.296;10.560;2023-07-20T15:29:02;27.80;79.70
9193;DHT22;4631;49.296;10.560;2023-07-20T15:31:30;27.90;80.00
9193;DHT22;4631;49.296;10.560;2023-07-20T15:33:56;27.90;80.30
9193;DHT22;4631;49.296;10.560;2023-07-20T15:36:23;27.90;79.40
9193;DHT22;4631;49.296;10.560;2023-07-20T15:38:49;28.00;79.30
9193;DHT22;4631;49.296;10.560;2023-07-20T15:41:16;28.10;81.30
9193;DHT22;4631;49.296;10.560;2023-07-20T15:43:43;28.30;79.10
9193;DHT22;4631;49.296;10.560;2023-07-20T15:48:55;28.60;76.80
9193;DHT22;4631;49.296;10.560;2023-07-20T15:51:22;28.70;76.10
9193;DHT22;4631;49.296;10.560;2023-07-20T15:53:48;28.60;75.10
9193;DHT22;4631;49.296;10.560;2023-07-20T15:56:15;28.50;75.40